createdAt,value
2023-02-08T00:00:58.168Z,-6.70
2023-02-08T00:03:25.331Z,-6.70
2023-02-08T00:05:59.184Z,-6.70
2023-02-08T00:08:26.205Z,-6.70
2023-02-08T00:11:00.174Z,-6.90
2023-02-08T00:13:27.555Z,-7.00
2023-02-08T00:16:04.147Z,-7.20
2023-02-08T00:18:31.591Z,-7.30
2023-02-08T00:20:58.514Z,-7.40
2023-02-08T00:23:33.166Z,-7.40
2023-02-08T00:26:00.090Z,-7.50
2023-02-08T00:28:34.234Z,-7.70
2023-02-08T00:31:01.276Z,-7.70
2023-02-08T00:33:35.144Z,-7.70
2023-02-08T00:36:04.825Z,-7.70
2023-02-08T00:38:39.153Z,-7.60
2023-02-08T00:41:07.832Z,-7.60
2023-02-08T00:43:41.129Z,-7.70
2023-02-08T00:46:09.664Z,-7.70
2023-02-08T00:48:50.171Z,-7.70
2023-02-08T00:51:17.141Z,-7.70
2023-02-08T00:53:52.171Z,-7.80
2023-02-08T00:56:19.155Z,-7.80
2023-02-08T00:58:47.144Z,-7.80
2023-02-08T01:01:21.179Z,-7.70
2023-02-08T01:03:55.222Z,-7.70
2023-02-08T01:06:29.133Z,-7.70
2023-02-08T01:09:02.176Z,-7.70
2023-02-08T01:11:29.293Z,-7.70
2023-02-08T01:14:04.167Z,-7.80
2023-02-08T01:16:40.189Z,-7.80
2023-02-08T01:19:14.211Z,-7.80
2023-02-08T01:21:50.142Z,-7.80
2023-02-08T01:24:17.785Z,-7.80
2023-02-08T01:26:51.155Z,-7.80
2023-02-08T01:29:18.791Z,-7.80
2023-02-08T01:31:53.190Z,-7.80
2023-02-08T01:34:20.331Z,-7.90
2023-02-08T01:36:54.195Z,-7.90
2023-02-08T01:39:33.173Z,-7.80
2023-02-08T01:42:07.156Z,-7.80
2023-02-08T01:45:28.238Z,-7.80
2023-02-08T01:48:12.085Z,-7.90
2023-02-08T01:50:57.185Z,-7.80
2023-02-08T01:53:26.374Z,-7.80
2023-02-08T01:56:05.167Z,-7.80
2023-02-08T01:58:44.161Z,-7.80
2023-02-08T02:01:13.773Z,-7.70
2023-02-08T02:03:55.207Z,-7.70
2023-02-08T02:06:43.135Z,-7.80
2023-02-08T02:09:35.191Z,-7.70
2023-02-08T02:12:02.630Z,-7.60
2023-02-08T02:14:37.167Z,-7.70
2023-02-08T02:17:11.167Z,-7.70
2023-02-08T02:20:03.530Z,-7.60
2023-02-08T02:22:49.234Z,-7.60
2023-02-08T02:25:49.277Z,-7.60
2023-02-08T02:28:59.200Z,-7.60
2023-02-08T02:32:22.515Z,-7.70
2023-02-08T02:35:39.184Z,-7.80
2023-02-08T02:38:28.919Z,-7.80
2023-02-08T02:42:00.194Z,-7.80
2023-02-08T02:45:29.164Z,-7.90
2023-02-08T02:48:11.015Z,-7.70
2023-02-08T02:51:16.196Z,-7.80
2023-02-08T02:53:56.047Z,-7.70
2023-02-08T02:56:37.202Z,-7.80
2023-02-08T02:59:11.016Z,-7.80
2023-02-08T03:01:48.192Z,-7.80
2023-02-08T03:04:45.227Z,-7.80
2023-02-08T03:07:43.181Z,-7.90
2023-02-08T03:10:52.987Z,-7.90
2023-02-08T03:14:20.247Z,-7.80
2023-02-08T03:17:20.204Z,-7.90
2023-02-08T03:20:20.166Z,-8.00
2023-02-08T03:23:07.987Z,-8.10
2023-02-08T03:26:04.196Z,-7.90
2023-02-08T03:29:31.217Z,-7.90
2023-02-08T03:32:06.846Z,-7.90
2023-02-08T03:35:11.207Z,-7.70
2023-02-08T03:37:57.773Z,-7.60
2023-02-08T03:40:54.186Z,-7.60
2023-02-08T03:43:29.964Z,-7.70
2023-02-08T03:46:20.242Z,-7.60
2023-02-08T03:48:57.118Z,-7.60
2023-02-08T03:51:34.194Z,-7.60
2023-02-08T03:54:16.194Z,-7.60
2023-02-08T03:57:02.170Z,-7.80
2023-02-08T03:59:37.895Z,-7.90
2023-02-08T04:02:16.178Z,-7.90
2023-02-08T04:04:52.123Z,-7.90
2023-02-08T04:07:26.233Z,-8.00
2023-02-08T04:09:53.433Z,-8.10
2023-02-08T04:12:27.179Z,-8.10
2023-02-08T04:14:54.646Z,-8.00
2023-02-08T04:17:21.982Z,-7.90
2023-02-08T04:19:55.224Z,-7.90
2023-02-08T04:22:29.194Z,-7.80
2023-02-08T04:25:03.168Z,-7.70
2023-02-08T04:27:37.168Z,-7.60
2023-02-08T04:30:12.168Z,-7.60
2023-02-08T04:32:39.413Z,-7.50
2023-02-08T04:35:13.185Z,-7.50
2023-02-08T04:37:40.238Z,-7.60
2023-02-08T04:40:14.212Z,-7.50
2023-02-08T04:42:47.210Z,-7.50
2023-02-08T04:45:21.223Z,-7.60
2023-02-08T04:47:48.184Z,-7.60
2023-02-08T04:50:23.422Z,-7.60
2023-02-08T04:52:50.368Z,-7.70
2023-02-08T04:55:24.225Z,-7.80
2023-02-08T04:57:51.247Z,-7.80
2023-02-08T05:00:25.202Z,-7.80
2023-02-08T05:03:12.179Z,-7.80
2023-02-08T05:05:46.223Z,-7.80
2023-02-08T05:08:19.162Z,-7.70
2023-02-08T05:10:46.471Z,-7.80
2023-02-08T05:13:20.224Z,-7.70
2023-02-08T05:15:54.191Z,-7.70
2023-02-08T05:18:21.358Z,-7.50
2023-02-08T05:21:06.198Z,-7.40
2023-02-08T05:23:33.619Z,-7.40
2023-02-08T05:26:12.190Z,-7.40
2023-02-08T05:28:39.195Z,-7.40
2023-02-08T05:31:27.385Z,-7.50
2023-02-08T05:33:54.472Z,-7.60
2023-02-08T05:36:30.188Z,-7.50
2023-02-08T05:38:57.220Z,-7.50
2023-02-08T05:41:31.203Z,-7.50
2023-02-08T05:43:58.285Z,-7.50
2023-02-08T05:46:32.247Z,-7.50
2023-02-08T05:48:59.290Z,-7.40
2023-02-08T05:51:33.206Z,-7.40
2023-02-08T05:54:07.172Z,-7.40
2023-02-08T05:57:03.212Z,-7.30
2023-02-08T05:59:37.208Z,-7.40
2023-02-08T06:02:11.187Z,-7.40
2023-02-08T06:04:52.174Z,-7.40
2023-02-08T06:07:19.165Z,-7.40
2023-02-08T06:09:53.223Z,-7.30
2023-02-08T06:12:20.300Z,-7.50
2023-02-08T06:14:54.178Z,-7.50
2023-02-08T06:17:27.191Z,-7.50
2023-02-08T06:20:01.223Z,-7.50
2023-02-08T06:22:28.217Z,-7.50
2023-02-08T06:25:02.221Z,-7.40
2023-02-08T06:27:29.280Z,-7.30
2023-02-08T06:30:03.220Z,-7.20
2023-02-08T06:32:30.813Z,-7.20
2023-02-08T06:35:05.165Z,-7.20
2023-02-08T06:37:38.194Z,-7.20
2023-02-08T06:40:06.736Z,-7.10
2023-02-08T06:42:41.224Z,-7.20
2023-02-08T06:45:11.019Z,-7.20
2023-02-08T06:50:19.835Z,-7.30
2023-02-08T06:52:47.830Z,-7.30
2023-02-08T06:55:15.323Z,-7.40
2023-02-08T06:57:48.844Z,-7.40
2023-02-08T07:00:16.094Z,-7.30
2023-02-08T07:02:49.878Z,-7.20
2023-02-08T07:05:26.187Z,-7.20
2023-02-08T07:07:53.625Z,-7.00
2023-02-08T07:10:26.836Z,-7.00
2023-02-08T07:13:00.817Z,-6.90
2023-02-08T07:15:34.819Z,-6.80
2023-02-08T07:18:08.822Z,-6.70
2023-02-08T07:20:42.805Z,-6.60
2023-02-08T07:23:15.812Z,-6.40
2023-02-08T07:25:42.953Z,-6.30
2023-02-08T07:28:16.888Z,-6.20
2023-02-08T07:30:43.941Z,-6.00
2023-02-08T07:33:17.888Z,-5.90
2023-02-08T07:35:45.614Z,-5.80
2023-02-08T07:38:21.022Z,-5.70
2023-02-08T07:40:55.848Z,-5.60
2023-02-08T07:43:22.857Z,-5.50
2023-02-08T07:45:56.883Z,-5.30
2023-02-08T07:48:32.303Z,-5.20
2023-02-08T07:51:06.034Z,-5.00
2023-02-08T07:53:39.930Z,-4.90
2023-02-08T07:56:08.075Z,-4.70
2023-02-08T07:58:42.879Z,-4.60
2023-02-08T08:01:22.411Z,-4.40
2023-02-08T08:03:51.821Z,-4.30
2023-02-08T08:06:27.830Z,-4.10
2023-02-08T08:08:54.981Z,-3.80
2023-02-08T08:11:28.841Z,-3.40
2023-02-08T08:13:56.298Z,-3.10
2023-02-08T08:16:29.852Z,-2.90
2023-02-08T08:18:56.925Z,-2.80
2023-02-08T08:21:30.832Z,-2.70
2023-02-08T08:24:04.861Z,-2.70
2023-02-08T08:26:31.973Z,-2.50
2023-02-08T08:29:05.875Z,-2.20
2023-02-08T08:31:39.854Z,-1.90
2023-02-08T08:34:07.279Z,-1.60
2023-02-08T08:36:40.876Z,-1.30
2023-02-08T08:39:08.022Z,-1.20
2023-02-08T08:41:43.837Z,-1.10
2023-02-08T08:44:10.857Z,-0.90
2023-02-08T08:46:44.888Z,-0.70
2023-02-08T08:49:19.009Z,-0.70
2023-02-08T08:51:58.844Z,-0.40
2023-02-08T08:54:26.090Z,-0.20
2023-02-08T08:56:59.891Z,-0.10
2023-02-08T08:59:27.263Z,0.00
2023-02-08T09:02:00.898Z,0.10
2023-02-08T09:04:35.865Z,0.30
2023-02-08T09:07:09.845Z,0.10
2023-02-08T09:09:38.113Z,0.10
2023-02-08T09:12:13.828Z,0.50
2023-02-08T09:14:41.044Z,0.80
2023-02-08T09:17:14.987Z,0.90
2023-02-08T09:19:48.843Z,1.10
2023-02-08T09:22:15.904Z,1.50
2023-02-08T09:24:49.904Z,1.60
2023-02-08T09:27:19.148Z,1.80
2023-02-08T09:29:52.844Z,1.90
2023-02-08T09:32:21.371Z,1.90
2023-02-08T09:34:58.849Z,2.00
2023-02-08T09:37:29.113Z,2.30
2023-02-08T09:40:04.847Z,2.70
2023-02-08T09:42:51.852Z,2.80
2023-02-08T09:46:00.243Z,2.90
2023-02-08T09:48:46.960Z,3.30
2023-02-08T09:52:27.969Z,3.40
2023-02-08T09:55:10.848Z,3.50
2023-02-08T09:57:39.669Z,3.20
2023-02-08T10:00:48.882Z,3.00
2023-02-08T10:03:39.094Z,3.10
2023-02-08T10:06:11.485Z,3.40
2023-02-08T10:08:46.851Z,3.70
2023-02-08T10:12:09.844Z,3.70
